createdAt,value
2017-08-26T00:02:30.671Z,84.74
2017-08-26T00:04:58.418Z,83.66
2017-08-26T00:07:26.234Z,83.71
2017-08-26T00:19:03.038Z,84.53
2017-08-26T00:21:30.774Z,84.12
2017-08-26T00:23:59.365Z,84.04
2017-08-26T00:26:27.158Z,84.12
2017-08-26T00:28:54.879Z,83.97
2017-08-26T00:31:22.783Z,84.13
2017-08-26T00:33:50.544Z,83.14
2017-08-26T00:36:18.243Z,83.37
2017-08-26T00:38:45.970Z,83.99
2017-08-26T00:41:13.669Z,83.73
2017-08-26T00:43:41.474Z,83.93
2017-08-26T00:46:09.460Z,84.09
2017-08-26T00:48:37.240Z,83.96
2017-08-26T00:51:05.021Z,84.06
2017-08-26T00:53:32.773Z,84.26
2017-08-26T00:56:00.613Z,83.67
2017-08-26T00:58:29.183Z,84.04
2017-08-26T01:00:57.008Z,83.96
2017-08-26T01:03:24.793Z,83.68
2017-08-26T01:05:52.567Z,84.40
2017-08-26T01:08:20.353Z,85.24
2017-08-26T01:10:48.134Z,84.43
2017-08-26T01:13:15.843Z,83.77
2017-08-26T01:15:43.636Z,84.09
2017-08-26T01:18:11.384Z,83.92
2017-08-26T01:20:39.869Z,84.27
2017-08-26T01:23:07.658Z,83.92
2017-08-26T01:25:35.556Z,84.18
2017-08-26T01:28:03.437Z,84.86
2017-08-26T01:30:31.516Z,84.55
2017-08-26T01:32:59.315Z,84.46
2017-08-26T01:35:27.076Z,84.91
2017-08-26T01:37:54.823Z,84.02
2017-08-26T01:40:22.577Z,83.68
2017-08-26T01:42:50.357Z,84.33
2017-08-26T01:45:18.134Z,84.25
2017-08-26T01:47:45.828Z,83.91
2017-08-26T01:50:13.601Z,84.42
2017-08-26T01:52:41.305Z,84.43
2017-08-26T01:55:09.071Z,84.24
2017-08-26T01:57:36.783Z,84.39
2017-08-26T02:00:04.574Z,84.08
2017-08-26T02:02:32.284Z,84.36
2017-08-26T02:04:59.980Z,84.38
2017-08-26T02:07:27.705Z,84.63
2017-08-26T02:09:55.498Z,86.29
2017-08-26T02:12:23.240Z,84.83
2017-08-26T02:14:50.951Z,84.38
2017-08-26T02:17:18.900Z,84.72
2017-08-26T02:19:47.653Z,84.84
2017-08-26T02:22:15.371Z,84.72
2017-08-26T02:24:43.130Z,84.55
2017-08-26T02:27:10.853Z,84.72
2017-08-26T02:29:38.620Z,84.44
2017-08-26T02:32:06.337Z,84.48
2017-08-26T02:34:34.073Z,84.99
2017-08-26T02:37:01.846Z,84.54
2017-08-26T02:39:30.478Z,84.65
2017-08-26T02:41:58.183Z,84.44
2017-08-26T02:44:25.981Z,84.48
2017-08-26T02:46:53.730Z,84.88
2017-08-26T02:49:21.437Z,85.18
2017-08-26T02:51:49.155Z,84.53
2017-08-26T02:54:17.940Z,84.53
2017-08-26T02:56:45.701Z,83.79
2017-08-26T02:59:14.525Z,84.34
2017-08-26T03:01:42.297Z,84.51
2017-08-26T03:04:10.016Z,84.42
2017-08-26T03:06:37.812Z,84.63
2017-08-26T03:09:05.506Z,84.49
2017-08-26T03:11:34.441Z,84.95
2017-08-26T03:14:02.159Z,85.12
2017-08-26T03:16:29.911Z,85.24
2017-08-26T03:18:57.599Z,85.43
2017-08-26T03:21:25.317Z,85.02
2017-08-26T03:23:53.025Z,84.98
2017-08-26T03:26:20.777Z,85.16
2017-08-26T03:28:48.514Z,86.09
2017-08-26T03:31:16.215Z,86.21
2017-08-26T03:33:43.966Z,85.59
2017-08-26T03:36:12.136Z,85.27
2017-08-26T03:38:39.847Z,85.25
2017-08-26T03:41:07.578Z,84.94
2017-08-26T03:43:35.344Z,85.00
2017-08-26T03:46:04.083Z,85.69
2017-08-26T03:48:31.846Z,85.61
2017-08-26T03:50:59.538Z,85.08
2017-08-26T03:53:27.278Z,85.06
2017-08-26T03:55:55.015Z,85.52
2017-08-26T03:58:22.723Z,85.70
2017-08-26T04:00:50.478Z,84.68
2017-08-26T04:03:18.178Z,84.74
2017-08-26T04:05:45.914Z,85.89
2017-08-26T04:08:14.063Z,86.66
2017-08-26T04:10:41.756Z,85.51
2017-08-26T04:13:09.508Z,86.40
2017-08-26T04:15:37.286Z,86.31
2017-08-26T04:18:05.615Z,85.56
2017-08-26T04:20:33.297Z,86.24
2017-08-26T04:23:01.044Z,86.03
2017-08-26T04:25:28.846Z,86.00
2017-08-26T04:27:56.636Z,86.36
2017-08-26T04:30:24.322Z,86.14
2017-08-26T04:32:53.060Z,85.91
2017-08-26T04:35:20.871Z,85.89
2017-08-26T04:37:48.618Z,87.46
2017-08-26T04:40:16.343Z,87.66
2017-08-26T04:42:44.112Z,86.88
2017-08-26T04:45:11.860Z,86.69
2017-08-26T04:47:39.630Z,86.06
2017-08-26T04:50:07.402Z,86.05
2017-08-26T04:52:35.870Z,86.16
2017-08-26T04:55:03.574Z,86.00
2017-08-26T04:57:31.382Z,85.96
2017-08-26T04:59:59.142Z,85.78
2017-08-26T05:02:26.864Z,85.52
2017-08-26T05:04:54.582Z,85.77
2017-08-26T05:07:22.320Z,86.27
2017-08-26T05:09:50.024Z,86.47
2017-08-26T05:12:17.736Z,86.04
2017-08-26T05:14:45.465Z,84.38
2017-08-26T05:17:13.214Z,81.50
2017-08-26T05:19:40.998Z,77.34
2017-08-26T05:22:09.308Z,77.47
2017-08-26T05:24:37.102Z,79.78
2017-08-26T05:27:04.823Z,81.40
2017-08-26T05:29:32.576Z,82.34
2017-08-26T05:32:00.293Z,82.42
2017-08-26T05:34:28.037Z,82.42
2017-08-26T05:36:55.991Z,81.75
2017-08-26T05:39:23.776Z,82.09
2017-08-26T05:41:51.709Z,81.89
2017-08-26T05:44:19.476Z,81.51
2017-08-26T05:46:47.211Z,81.73
2017-08-26T05:49:14.990Z,81.80
2017-08-26T05:51:42.692Z,82.18
2017-08-26T05:54:10.400Z,81.55
2017-08-26T05:56:38.821Z,80.79
2017-08-26T05:59:06.528Z,80.38
2017-08-26T06:01:34.324Z,79.05
2017-08-26T06:04:02.964Z,79.41
2017-08-26T06:06:33.793Z,79.22
2017-08-26T06:09:01.490Z,79.07
2017-08-26T06:11:29.271Z,79.80
2017-08-26T06:13:58.459Z,80.84
2017-08-26T06:16:26.311Z,81.05
2017-08-26T06:18:54.092Z,80.83
2017-08-26T06:21:22.509Z,79.74
2017-08-26T06:23:50.292Z,77.88
2017-08-26T06:26:18.022Z,77.65
2017-08-26T06:28:45.812Z,76.80
2017-08-26T06:31:13.560Z,76.46
2017-08-26T06:33:41.328Z,75.73
2017-08-26T06:36:11.401Z,75.35
2017-08-26T06:38:39.217Z,74.96
2017-08-26T06:41:07.523Z,74.07
2017-08-26T06:43:36.055Z,75.09
2017-08-26T06:46:03.858Z,75.78
2017-08-26T06:48:31.618Z,76.08
2017-08-26T06:50:59.352Z,74.77
2017-08-26T06:53:27.249Z,76.61
2017-08-26T06:55:55.138Z,76.99
2017-08-26T06:58:22.878Z,77.38
2017-08-26T07:00:51.591Z,76.97
2017-08-26T07:03:20.657Z,78.13
2017-08-26T07:05:48.652Z,78.49
2017-08-26T07:08:16.346Z,77.51
2017-08-26T07:10:44.125Z,77.63
2017-08-26T07:13:11.856Z,77.16
2017-08-26T07:15:41.482Z,77.16
2017-08-26T07:18:09.286Z,78.18
2017-08-26T07:20:37.132Z,75.97
2017-08-26T07:23:04.942Z,77.32
2017-08-26T07:25:32.690Z,76.06
2017-08-26T07:28:00.450Z,76.99
2017-08-26T07:30:28.167Z,76.84
2017-08-26T07:32:55.944Z,76.31
2017-08-26T07:35:23.890Z,77.18
2017-08-26T07:37:51.693Z,76.79
2017-08-26T07:40:19.596Z,76.56
2017-08-26T07:42:47.346Z,76.84
2017-08-26T07:45:15.096Z,77.99
2017-08-26T07:47:42.814Z,79.07
2017-08-26T07:50:10.744Z,79.27
2017-08-26T07:52:38.546Z,78.46
2017-08-26T07:55:06.343Z,78.71
2017-08-26T07:57:34.134Z,78.65
2017-08-26T08:00:01.885Z,79.62
2017-08-26T08:02:29.608Z,79.06
2017-08-26T08:04:58.265Z,78.59
2017-08-26T08:07:26.106Z,76.28
2017-08-26T08:09:54.014Z,73.02
2017-08-26T08:12:21.842Z,73.56
2017-08-26T08:14:49.646Z,73.03
2017-08-26T08:17:17.439Z,71.89
2017-08-26T08:19:45.327Z,71.49
2017-08-26T08:22:13.273Z,71.26
2017-08-26T08:24:41.138Z,69.72
2017-08-26T08:27:08.878Z,68.76
2017-08-26T08:29:36.634Z,65.69
2017-08-26T08:32:04.459Z,67.24
2017-08-26T08:34:32.167Z,67.64
2017-08-26T08:37:00.009Z,66.28
2017-08-26T08:39:27.868Z,67.59
2017-08-26T08:41:55.651Z,67.12
2017-08-26T08:44:23.414Z,67.68
2017-08-26T08:46:51.138Z,66.10
2017-08-26T08:49:18.900Z,63.08
2017-08-26T08:51:46.760Z,61.81
2017-08-26T08:54:15.642Z,62.10
2017-08-26T08:56:43.432Z,62.80
2017-08-26T08:59:11.230Z,63.59
2017-08-26T09:01:38.998Z,63.24
2017-08-26T09:04:06.757Z,62.66
2017-08-26T09:06:34.473Z,63.14
2017-08-26T09:09:02.252Z,63.11
2017-08-26T09:11:30.704Z,64.26
2017-08-26T09:13:58.442Z,63.61
2017-08-26T09:16:26.159Z,62.85
2017-08-26T09:18:53.994Z,63.46
2017-08-26T09:21:21.749Z,62.38
2017-08-26T09:23:49.506Z,62.04
2017-08-26T09:26:17.317Z,61.47
2017-08-26T09:28:46.270Z,59.91
2017-08-26T09:31:14.053Z,62.10
2017-08-26T09:33:41.939Z,60.57
2017-08-26T09:36:09.793Z,60.88
2017-08-26T09:38:37.555Z,61.11
2017-08-26T09:41:14.189Z,60.72
2017-08-26T09:43:41.957Z,61.25
2017-08-26T09:46:09.725Z,60.78
2017-08-26T09:48:37.421Z,59.11
2017-08-26T09:51:05.255Z,57.96
2017-08-26T09:53:32.964Z,55.18
2017-08-26T09:56:00.724Z,57.25
2017-08-26T09:58:29.286Z,58.86
2017-08-26T10:00:57.101Z,59.50
2017-08-26T10:03:24.941Z,57.95
2017-08-26T10:05:52.656Z,57.57
2017-08-26T10:08:20.425Z,55.75
2017-08-26T10:10:48.215Z,55.27
2017-08-26T10:13:16.002Z,54.61
2017-08-26T10:15:43.791Z,54.59
2017-08-26T10:18:11.557Z,54.75
2017-08-26T10:20:39.333Z,54.02
2017-08-26T10:23:07.094Z,55.29
2017-08-26T10:25:34.806Z,53.05
2017-08-26T10:28:02.593Z,54.75
2017-08-26T10:30:30.426Z,54.60
2017-08-26T10:32:58.193Z,53.99
2017-08-26T10:35:26.096Z,52.31
2017-08-26T10:37:53.875Z,51.42
2017-08-26T10:40:21.749Z,52.29
2017-08-26T10:42:49.618Z,52.56
2017-08-26T10:45:17.364Z,53.15
2017-08-26T10:47:45.226Z,52.42
2017-08-26T10:50:13.002Z,53.92
2017-08-26T10:52:40.799Z,52.70
2017-08-26T10:55:08.622Z,50.58
2017-08-26T10:57:36.415Z,50.34
2017-08-26T11:00:04.262Z,49.77
2017-08-26T11:02:31.966Z,52.33
2017-08-26T11:04:59.741Z,50.77
2017-08-26T11:07:27.446Z,48.51
2017-08-26T11:09:55.211Z,50.41
2017-08-26T11:12:22.966Z,50.82
2017-08-26T11:14:50.720Z,51.48
2017-08-26T11:17:18.510Z,49.85
2017-08-26T11:19:46.268Z,51.57
2017-08-26T11:22:14.108Z,50.48
2017-08-26T11:24:41.809Z,50.79
2017-08-26T11:27:09.583Z,51.22
2017-08-26T11:29:37.319Z,51.42
2017-08-26T11:32:05.094Z,51.05
2017-08-26T11:34:32.862Z,48.10
2017-08-26T11:37:01.634Z,48.85
2017-08-26T11:39:29.553Z,48.46
2017-08-26T11:41:57.366Z,48.09
2017-08-26T11:44:25.116Z,47.81
2017-08-26T11:46:52.817Z,47.57
2017-08-26T11:49:20.581Z,48.29
2017-08-26T11:51:48.276Z,48.85
2017-08-26T11:54:16.016Z,47.93
2017-08-26T11:56:43.830Z,48.04
2017-08-26T11:59:11.555Z,48.57
2017-08-26T12:01:39.297Z,47.06
2017-08-26T12:04:07.056Z,48.30
2017-08-26T12:06:34.833Z,45.99
2017-08-26T12:09:02.756Z,47.28
2017-08-26T12:11:30.594Z,47.69
2017-08-26T12:13:58.389Z,47.26
2017-08-26T12:16:26.238Z,43.87
2017-08-26T12:18:53.996Z,47.42
2017-08-26T12:21:21.954Z,45.01
2017-08-26T12:23:49.660Z,45.63
2017-08-26T12:26:17.438Z,44.49
2017-08-26T12:28:46.433Z,45.24
2017-08-26T12:31:14.177Z,46.18
2017-08-26T12:33:41.957Z,44.54
2017-08-26T12:36:09.785Z,44.06
2017-08-26T12:38:37.594Z,45.31
2017-08-26T12:41:05.549Z,45.52
2017-08-26T12:43:33.661Z,47.22
2017-08-26T12:46:01.531Z,47.11
2017-08-26T12:48:29.806Z,46.99
2017-08-26T12:50:57.526Z,47.63
2017-08-26T12:53:25.346Z,45.90
2017-08-26T12:55:53.231Z,46.60
2017-08-26T12:58:21.077Z,46.00
2017-08-26T13:00:48.836Z,45.98
2017-08-26T13:03:16.602Z,45.88
2017-08-26T13:05:44.402Z,46.13
2017-08-26T13:08:12.212Z,46.61
2017-08-26T13:10:40.012Z,47.34
2017-08-26T13:13:07.803Z,49.07
2017-08-26T13:15:35.697Z,48.61
2017-08-26T13:18:03.858Z,49.88
2017-08-26T13:20:31.619Z,47.92
2017-08-26T13:22:59.763Z,48.64
2017-08-26T13:25:27.587Z,48.80
2017-08-26T13:27:55.382Z,47.82
2017-08-26T13:30:23.198Z,48.03
2017-08-26T13:32:51.011Z,45.94
2017-08-26T13:35:19.110Z,47.41
2017-08-26T13:37:46.877Z,47.78
2017-08-26T13:40:14.682Z,48.12
2017-08-26T13:42:42.536Z,47.55
2017-08-26T13:45:10.847Z,47.83
2017-08-26T13:47:38.653Z,48.16
2017-08-26T13:50:06.475Z,47.57
2017-08-26T13:52:34.276Z,46.99
2017-08-26T13:55:02.012Z,42.82
2017-08-26T13:57:29.787Z,43.53
2017-08-26T13:59:57.586Z,43.15
2017-08-26T14:02:25.362Z,39.60
2017-08-26T14:04:53.794Z,39.66
2017-08-26T14:07:21.595Z,45.24
2017-08-26T14:09:49.400Z,45.99
2017-08-26T14:12:17.100Z,44.85
2017-08-26T14:14:44.875Z,43.85
2017-08-26T14:17:12.739Z,43.52
2017-08-26T14:19:40.461Z,44.35
2017-08-26T14:22:08.373Z,45.17
2017-08-26T14:24:36.245Z,41.29
2017-08-26T14:27:03.955Z,43.78
2017-08-26T14:29:31.901Z,42.47
2017-08-26T14:31:59.680Z,44.71
2017-08-26T14:34:27.416Z,44.73
2017-08-26T14:36:55.305Z,45.44
2017-08-26T14:39:23.001Z,45.98
2017-08-26T14:41:50.750Z,44.74
2017-08-26T14:44:18.514Z,45.20
2017-08-26T14:46:46.318Z,45.51
2017-08-26T14:49:14.027Z,44.08
2017-08-26T14:51:41.815Z,44.43
2017-08-26T14:54:09.594Z,45.78
2017-08-26T14:56:38.457Z,46.68
2017-08-26T14:59:06.200Z,44.87
2017-08-26T15:01:33.959Z,45.01
2017-08-26T15:04:01.820Z,44.39
2017-08-26T15:06:29.536Z,45.20
2017-08-26T15:08:57.314Z,47.05
2017-08-26T15:11:25.032Z,48.20
2017-08-26T15:13:52.801Z,47.06
2017-08-26T15:16:20.512Z,48.21
2017-08-26T15:18:48.261Z,50.74
2017-08-26T15:21:15.963Z,50.17
2017-08-26T15:23:43.734Z,49.77
2017-08-26T15:26:11.532Z,49.96
2017-08-26T15:28:39.240Z,50.81
2017-08-26T15:31:06.934Z,52.79
2017-08-26T15:33:34.665Z,51.72
2017-08-26T15:36:02.387Z,52.25
2017-08-26T15:38:30.136Z,54.63
2017-08-26T15:40:57.871Z,55.73
2017-08-26T15:43:25.623Z,56.77
2017-08-26T15:45:53.414Z,57.46
2017-08-26T15:48:21.125Z,57.72
2017-08-26T15:50:48.903Z,55.70
2017-08-26T15:53:16.661Z,56.27
2017-08-26T15:55:44.429Z,58.63
2017-08-26T15:58:12.240Z,58.41
2017-08-26T16:00:39.969Z,59.80
2017-08-26T16:03:07.698Z,61.04
2017-08-26T16:05:35.449Z,61.65
2017-08-26T16:08:03.156Z,61.65
2017-08-26T16:10:31.323Z,62.37
2017-08-26T16:12:59.054Z,61.51
2017-08-26T16:15:26.820Z,60.83
2017-08-26T16:17:54.614Z,61.73
2017-08-26T16:20:22.396Z,60.84
2017-08-26T16:22:50.174Z,59.68
2017-08-26T16:25:17.914Z,59.43
2017-08-26T16:27:45.617Z,59.99
2017-08-26T16:30:13.357Z,61.76
2017-08-26T16:32:41.042Z,61.20
2017-08-26T16:35:08.755Z,62.25
2017-08-26T16:37:36.549Z,62.22
2017-08-26T16:40:04.312Z,63.38
2017-08-26T16:42:32.311Z,62.87
2017-08-26T16:45:00.042Z,61.83
2017-08-26T16:47:27.732Z,61.97
2017-08-26T16:49:55.471Z,63.55
2017-08-26T16:52:23.173Z,63.37
2017-08-26T16:54:50.886Z,60.77
2017-08-26T16:57:18.684Z,63.30
2017-08-26T16:59:46.407Z,64.63
2017-08-26T17:02:14.108Z,64.84
2017-08-26T17:04:41.887Z,65.16
2017-08-26T17:07:09.648Z,64.80
2017-08-26T17:09:37.333Z,66.10
2017-08-26T17:12:05.055Z,65.44
2017-08-26T17:14:32.795Z,66.27
2017-08-26T17:17:00.608Z,66.73
2017-08-26T17:19:28.325Z,65.57
2017-08-26T17:21:56.103Z,65.53
2017-08-26T17:24:23.832Z,65.43
2017-08-26T17:26:51.614Z,65.30
2017-08-26T17:29:19.740Z,65.94
2017-08-26T17:31:47.537Z,65.35
2017-08-26T17:34:15.283Z,66.19
2017-08-26T17:36:42.966Z,68.19
2017-08-26T17:39:10.791Z,68.69
2017-08-26T17:41:38.564Z,68.06
2017-08-26T17:44:06.370Z,68.05
2017-08-26T17:46:34.084Z,69.01
2017-08-26T17:49:01.864Z,64.77
2017-08-26T17:51:29.770Z,58.96
2017-08-26T17:53:57.607Z,55.71
2017-08-26T17:56:26.081Z,52.18
2017-08-26T17:58:53.799Z,50.03
2017-08-26T18:01:21.653Z,48.54
2017-08-26T18:03:49.487Z,49.48
2017-08-26T18:06:17.203Z,50.69
2017-08-26T18:08:44.961Z,50.53
2017-08-26T18:11:12.706Z,51.61
2017-08-26T18:13:40.474Z,51.30
2017-08-26T18:16:08.192Z,52.23
2017-08-26T18:18:35.928Z,53.49
2017-08-26T18:21:03.735Z,59.85
2017-08-26T18:23:31.453Z,61.66
2017-08-26T18:25:59.253Z,57.43
2017-08-26T18:28:27.007Z,56.75
2017-08-26T18:30:54.746Z,56.40
2017-08-26T18:33:22.618Z,57.09
2017-08-26T18:35:50.383Z,58.71
2017-08-26T18:38:18.247Z,60.36
2017-08-26T18:40:46.796Z,63.40
2017-08-26T18:43:14.702Z,65.06
2017-08-26T18:45:42.630Z,64.92
2017-08-26T18:48:10.387Z,67.66
2017-08-26T18:50:39.196Z,67.50
2017-08-26T18:53:07.051Z,68.05
2017-08-26T18:55:35.000Z,67.77
2017-08-26T18:58:02.955Z,70.65
2017-08-26T19:00:32.671Z,72.98
2017-08-26T19:03:01.434Z,72.52
2017-08-26T19:05:29.760Z,72.24
2017-08-26T19:07:57.665Z,72.95
2017-08-26T19:10:25.594Z,72.58
2017-08-26T19:12:54.159Z,73.16
2017-08-26T19:15:21.970Z,72.27
2017-08-26T19:17:49.793Z,74.62
2017-08-26T19:20:17.688Z,70.48
2017-08-26T19:22:45.578Z,71.27
2017-08-26T19:25:14.842Z,71.95
2017-08-26T19:27:43.690Z,72.41
2017-08-26T19:30:12.141Z,74.59
2017-08-26T19:32:43.420Z,75.03
2017-08-26T19:35:12.102Z,75.85
2017-08-26T19:37:40.682Z,76.17
2017-08-26T19:40:08.449Z,76.57
2017-08-26T19:42:41.130Z,76.09
2017-08-26T19:45:08.982Z,74.78
2017-08-26T19:47:36.723Z,74.98
2017-08-26T19:50:04.565Z,76.68
2017-08-26T19:52:32.622Z,77.28
2017-08-26T19:55:00.350Z,73.24
2017-08-26T19:57:28.266Z,72.25
2017-08-26T19:59:57.376Z,70.31
2017-08-26T20:02:26.157Z,68.53
2017-08-26T20:04:54.014Z,68.19
2017-08-26T20:07:21.886Z,71.32
2017-08-26T20:09:53.532Z,68.80
2017-08-26T20:12:24.177Z,70.90
2017-08-26T20:14:53.033Z,69.84
2017-08-26T20:17:20.774Z,68.78
2017-08-26T20:19:48.489Z,67.60
2017-08-26T20:22:17.958Z,68.41
2017-08-26T20:24:45.736Z,68.30
2017-08-26T20:27:15.771Z,68.96
2017-08-26T20:29:43.535Z,68.82
2017-08-26T20:32:11.986Z,72.18
2017-08-26T20:34:39.695Z,69.35
2017-08-26T20:37:07.497Z,66.40
2017-08-26T20:39:35.229Z,65.11
2017-08-26T20:42:02.997Z,64.22
2017-08-26T20:44:30.761Z,63.14
2017-08-26T20:46:58.467Z,63.37
2017-08-26T20:49:26.261Z,62.03
2017-08-26T20:51:54.039Z,62.27
2017-08-26T20:54:21.746Z,61.00
2017-08-26T20:56:49.538Z,61.14
2017-08-26T20:59:17.369Z,61.40
2017-08-26T21:01:45.142Z,62.54
2017-08-26T21:04:12.921Z,62.01
2017-08-26T21:06:40.686Z,62.68
2017-08-26T21:09:08.478Z,62.99
2017-08-26T21:11:36.204Z,60.93
2017-08-26T21:14:03.953Z,60.47
2017-08-26T21:16:32.007Z,60.56
2017-08-26T21:18:59.771Z,61.08
2017-08-26T21:21:27.538Z,61.22
2017-08-26T21:23:55.308Z,61.34
2017-08-26T21:26:23.038Z,62.06
2017-08-26T21:28:51.129Z,62.81
2017-08-26T21:31:18.969Z,61.28
2017-08-26T21:33:46.702Z,61.58
2017-08-26T21:36:14.528Z,60.56
2017-08-26T21:38:42.338Z,61.51
2017-08-26T21:41:10.131Z,62.59
2017-08-26T21:43:37.938Z,62.00
2017-08-26T21:46:06.877Z,61.92
2017-08-26T21:48:34.870Z,61.55
2017-08-26T21:51:02.633Z,63.08
2017-08-26T21:53:30.394Z,63.28
2017-08-26T21:55:58.149Z,62.88
2017-08-26T21:58:25.928Z,63.84
2017-08-26T22:00:54.432Z,64.14
2017-08-26T22:03:22.158Z,63.42
2017-08-26T22:05:49.998Z,63.38
2017-08-26T22:08:17.726Z,64.27
2017-08-26T22:10:45.508Z,64.38
2017-08-26T22:13:13.357Z,64.80
2017-08-26T22:15:41.108Z,64.43
2017-08-26T22:18:08.913Z,63.90
2017-08-26T22:20:36.626Z,65.48
2017-08-26T22:23:04.458Z,65.99
2017-08-26T22:25:32.239Z,66.18
2017-08-26T22:27:59.981Z,66.89
2017-08-26T22:30:27.922Z,66.68
2017-08-26T22:32:55.640Z,66.86
2017-08-26T22:35:23.473Z,66.24
2017-08-26T22:37:51.172Z,65.98
2017-08-26T22:40:19.050Z,66.73
2017-08-26T22:42:46.776Z,68.48
2017-08-26T22:45:14.531Z,69.91
2017-08-26T22:47:42.316Z,70.76
2017-08-26T22:50:10.063Z,70.95
2017-08-26T22:52:37.931Z,70.55
2017-08-26T22:55:06.786Z,69.52
2017-08-26T22:57:34.500Z,71.40
2017-08-26T23:00:02.214Z,70.98
2017-08-26T23:02:30.005Z,70.78
2017-08-26T23:04:57.698Z,70.42
2017-08-26T23:07:25.473Z,70.51
2017-08-26T23:09:53.286Z,71.31
2017-08-26T23:12:21.112Z,72.29
2017-08-26T23:14:48.828Z,72.27
2017-08-26T23:17:16.590Z,71.87
2017-08-26T23:19:44.315Z,72.34
2017-08-26T23:22:12.012Z,72.15
2017-08-26T23:24:39.796Z,72.22
2017-08-26T23:27:07.537Z,72.74
2017-08-26T23:29:35.231Z,73.53
2017-08-26T23:32:03.600Z,75.10
2017-08-26T23:34:31.320Z,74.36
2017-08-26T23:36:59.030Z,74.94
2017-08-26T23:39:26.806Z,73.98
2017-08-26T23:41:54.521Z,73.18
2017-08-26T23:44:22.272Z,73.73
2017-08-26T23:46:50.168Z,73.81
2017-08-26T23:49:17.891Z,73.93
2017-08-26T23:51:45.624Z,74.90
2017-08-26T23:54:13.328Z,75.13
2017-08-26T23:56:41.030Z,74.97
2017-08-26T23:59:08.775Z,75.14
